Terminal Aerodrome Forecast
Issued by NWS

Home | Current Version | Previous Version | Text Only | Print | Product List | Glossary On
Versions: 1 2 3 4 5 6 7 8 9 10 11 12
086
FTUS42 TJSJ 072345
TAFJMZ
TAF
TJMZ 072345Z 0800/0824 06007KT P6SM FEW025
     FM081530 29010KT P6SM VCSH SCT025 BKN040
     FM082200 06006KT P6SM SCT025 SCT040=

USA.gov is the U.S. government's official web portal to all federal, state and local government web resources and services.